sensor_id;sensor_type;location;lat;lon;timestamp;temperature;humidity
55004;DHT22;40900;52.710;6.438;2023-04-25T00:01:22;6.80;99.90
55004;DHT22;40900;52.710;6.438;2023-04-25T00:03:48;6.80;99.90
55004;DHT22;40900;52.710;6.438;2023-04-25T00:06:14;6.80;99.90
55004;DHT22;40900;52.710;6.438;2023-04-25T00:08:40;6.70;99.90
55004;DHT22;40900;52.710;6.438;2023-04-25T00:11:06;6.70;99.90
55004;DHT22;40900;52.710;6.438;2023-04-25T00:13:32;6.70;99.90
55004;DHT22;40900;52.710;6.438;2023-04-25T00:15:58;6.60;99.90
55004;DHT22;40900;52.710;6.438;2023-04-25T00:18:24;6.60;99.90
55004;DHT22;40900;52.710;6.438;2023-04-25T00:20:50;6.60;99.90
55004;DHT22;40900;52.710;6.438;2023-04-25T00:23:16;6.50;99.90
55004;DHT22;40900;52.710;6.438;2023-04-25T00:25:48;6.50;99.90
55004;DHT22;40900;52.710;6.438;2023-04-25T00:28:14;6.40;99.90
55004;DHT22;40900;52.710;6.438;2023-04-25T00:30:40;6.40;99.90
55004;DHT22;40900;52.710;6.438;2023-04-25T00:33:06;6.40;99.90
55004;DHT22;40900;52.710;6.438;2023-04-25T00:35:32;6.40;99.90
55004;DHT22;40900;52.710;6.438;2023-04-25T00:37:59;6.30;99.90
55004;DHT22;40900;52.710;6.438;2023-04-25T00:40:25;6.30;99.90
55004;DHT22;40900;52.710;6.438;2023-04-25T00:42:52;6.30;99.90
55004;DHT22;40900;52.710;6.438;2023-04-25T00:45:18;6.20;99.90
55004;DHT22;40900;52.710;6.438;2023-04-25T00:47:44;6.10;99.90
55004;DHT22;40900;52.710;6.438;2023-04-25T00:50:11;6.10;99.90
55004;DHT22;40900;52.710;6.438;2023-04-25T00:52:39;6.10;99.90
55004;DHT22;40900;52.710;6.438;2023-04-25T00:55:06;6.10;99.90
55004;DHT22;40900;52.710;6.438;2023-04-25T00:57:32;6.10;99.90
55004;DHT22;40900;52.710;6.438;2023-04-25T00:59:59;6.00;99.90
55004;DHT22;40900;52.710;6.438;2023-04-25T01:02:26;6.00;99.90
55004;DHT22;40900;52.710;6.438;2023-04-25T01:04:53;6.00;99.90
55004;DHT22;40900;52.710;6.438;2023-04-25T01:07:19;5.90;99.90
55004;DHT22;40900;52.710;6.438;2023-04-25T01:09:46;6.00;99.90
55004;DHT22;40900;52.710;6.438;2023-04-25T01:12:11;5.90;99.90
55004;DHT22;40900;52.710;6.438;2023-04-25T01:14:38;6.00;99.90
55004;DHT22;40900;52.710;6.438;2023-04-25T01:17:04;6.00;99.90
55004;DHT22;40900;52.710;6.438;2023-04-25T01:19:30;6.00;99.90
55004;DHT22;40900;52.710;6.438;2023-04-25T01:21:56;6.10;99.90
55004;DHT22;40900;52.710;6.438;2023-04-25T01:24:22;6.10;99.90
55004;DHT22;40900;52.710;6.438;2023-04-25T01:26:48;6.10;99.90
55004;DHT22;40900;52.710;6.438;2023-04-25T01:29:19;6.00;99.90
55004;DHT22;40900;52.710;6.438;2023-04-25T01:31:45;6.00;99.90
55004;DHT22;40900;52.710;6.438;2023-04-25T01:34:12;6.00;99.90
55004;DHT22;40900;52.710;6.438;2023-04-25T01:36:37;5.90;99.90
55004;DHT22;40900;52.710;6.438;2023-04-25T01:39:03;5.90;99.90
55004;DHT22;40900;52.710;6.438;2023-04-25T01:41:29;5.90;99.90
55004;DHT22;40900;52.710;6.438;2023-04-25T01:43:55;5.90;99.90
55004;DHT22;40900;52.710;6.438;2023-04-25T01:46:21;5.90;99.90
55004;DHT22;40900;52.710;6.438;2023-04-25T01:48:47;5.90;99.90
55004;DHT22;40900;52.710;6.438;2023-04-25T01:51:13;6.00;99.90
55004;DHT22;40900;52.710;6.438;2023-04-25T01:53:39;6.00;99.90
55004;DHT22;40900;52.710;6.438;2023-04-25T01:56:05;6.00;99.90
55004;DHT22;40900;52.710;6.438;2023-04-25T01:58:31;6.00;99.90
55004;DHT22;40900;52.710;6.438;2023-04-25T02:00:56;6.00;99.90
55004;DHT22;40900;52.710;6.438;2023-04-25T02:03:22;6.00;99.90
55004;DHT22;40900;52.710;6.438;2023-04-25T02:05:48;6.00;99.90
55004;DHT22;40900;52.710;6.438;2023-04-25T02:08:14;6.00;99.90
55004;DHT22;40900;52.710;6.438;2023-04-25T02:10:39;6.00;99.90
55004;DHT22;40900;52.710;6.438;2023-04-25T02:13:05;6.10;99.90
55004;DHT22;40900;52.710;6.438;2023-04-25T02:15:31;6.10;99.90
55004;DHT22;40900;52.710;6.438;2023-04-25T02:17:57;6.10;99.90
55004;DHT22;40900;52.710;6.438;2023-04-25T02:20:24;6.10;99.90
55004;DHT22;40900;52.710;6.438;2023-04-25T02:22:50;6.10;99.90
55004;DHT22;40900;52.710;6.438;2023-04-25T02:25:17;6.10;99.90
55004;DHT22;40900;52.710;6.438;2023-04-25T02:27:45;6.10;99.90
55004;DHT22;40900;52.710;6.438;2023-04-25T02:30:11;6.10;99.90
55004;DHT22;40900;52.710;6.438;2023-04-25T02:32:38;6.20;99.90
55004;DHT22;40900;52.710;6.438;2023-04-25T02:35:04;6.20;99.90
55004;DHT22;40900;52.710;6.438;2023-04-25T02:37:34;6.20;99.90
55004;DHT22;40900;52.710;6.438;2023-04-25T02:40:01;6.20;99.90
55004;DHT22;40900;52.710;6.438;2023-04-25T02:42:28;6.20;99.90
55004;DHT22;40900;52.710;6.438;2023-04-25T02:44:53;6.20;99.90
55004;DHT22;40900;52.710;6.438;2023-04-25T02:47:19;6.20;99.90
55004;DHT22;40900;52.710;6.438;2023-04-25T02:49:46;6.20;99.90
55004;DHT22;40900;52.710;6.438;2023-04-25T02:52:12;6.10;99.90
55004;DHT22;40900;52.710;6.438;2023-04-25T02:54:39;6.20;99.90
55004;DHT22;40900;52.710;6.438;2023-04-25T02:57:05;6.20;99.90
55004;DHT22;40900;52.710;6.438;2023-04-25T02:59:31;6.20;99.90
55004;DHT22;40900;52.710;6.438;2023-04-25T03:01:56;6.20;99.90
55004;DHT22;40900;52.710;6.438;2023-04-25T03:04:22;6.10;99.90
55004;DHT22;40900;52.710;6.438;2023-04-25T03:06:52;6.20;99.90
55004;DHT22;40900;52.710;6.438;2023-04-25T03:09:19;6.20;99.90
55004;DHT22;40900;52.710;6.438;2023-04-25T03:11:45;6.20;99.90
55004;DHT22;40900;52.710;6.438;2023-04-25T03:14:12;6.20;99.90
55004;DHT22;40900;52.710;6.438;2023-04-25T03:16:38;6.20;99.90
55004;DHT22;40900;52.710;6.438;2023-04-25T03:19:04;6.10;99.90
55004;DHT22;40900;52.710;6.438;2023-04-25T03:21:31;6.20;99.90
55004;DHT22;40900;52.710;6.438;2023-04-25T03:24:03;6.20;99.90
55004;DHT22;40900;52.710;6.438;2023-04-25T03:26:29;6.20;99.90
55004;DHT22;40900;52.710;6.438;2023-04-25T03:28:55;6.20;99.90
55004;DHT22;40900;52.710;6.438;2023-04-25T03:31:20;6.20;99.90
55004;DHT22;40900;52.710;6.438;2023-04-25T03:33:47;6.20;99.90
55004;DHT22;40900;52.710;6.438;2023-04-25T03:36:13;6.10;99.90
55004;DHT22;40900;52.710;6.438;2023-04-25T03:38:39;6.10;99.90
55004;DHT22;40900;52.710;6.438;2023-04-25T03:41:06;6.10;99.90
55004;DHT22;40900;52.710;6.438;2023-04-25T03:43:32;6.20;99.90
55004;DHT22;40900;52.710;6.438;2023-04-25T03:45:58;6.10;99.90
55004;DHT22;40900;52.710;6.438;2023-04-25T03:48:24;6.10;99.90
55004;DHT22;40900;52.710;6.438;2023-04-25T03:50:51;6.00;99.90
55004;DHT22;40900;52.710;6.438;2023-04-25T03:53:17;6.10;99.90
55004;DHT22;40900;52.710;6.438;2023-04-25T03:55:43;6.10;99.90
55004;DHT22;40900;52.710;6.438;2023-04-25T03:58:08;6.00;99.90
55004;DHT22;40900;52.710;6.438;2023-04-25T04:00:35;6.10;99.90
55004;DHT22;40900;52.710;6.438;2023-04-25T04:03:01;6.10;99.90
55004;DHT22;40900;52.710;6.438;2023-04-25T04:05:26;6.00;99.90
55004;DHT22;40900;52.710;6.438;2023-04-25T04:07:53;6.00;99.90
55004;DHT22;40900;52.710;6.438;2023-04-25T04:10:19;6.10;99.90
55004;DHT22;40900;52.710;6.438;2023-04-25T04:12:45;6.10;99.90
55004;DHT22;40900;52.710;6.438;2023-04-25T04:15:10;6.10;99.90
55004;DHT22;40900;52.710;6.438;2023-04-25T04:17:37;6.00;99.90
55004;DHT22;40900;52.710;6.438;2023-04-25T04:20:03;6.00;99.90
55004;DHT22;40900;52.710;6.438;2023-04-25T04:22:29;6.10;99.90
55004;DHT22;40900;52.710;6.438;2023-04-25T04:24:55;6.00;99.90
55004;DHT22;40900;52.710;6.438;2023-04-25T04:27:22;6.00;99.90
55004;DHT22;40900;52.710;6.438;2023-04-25T04:29:48;6.00;99.90
55004;DHT22;40900;52.710;6.438;2023-04-25T04:32:15;5.90;99.90
55004;DHT22;40900;52.710;6.438;2023-04-25T04:34:41;6.00;99.90
55004;DHT22;40900;52.710;6.438;2023-04-25T04:37:07;5.90;99.90
55004;DHT22;40900;52.710;6.438;2023-04-25T04:39:36;6.00;99.90
55004;DHT22;40900;52.710;6.438;2023-04-25T04:42:02;5.90;99.90
55004;DHT22;40900;52.710;6.438;2023-04-25T04:44:29;5.90;99.90
55004;DHT22;40900;52.710;6.438;2023-04-25T04:46:58;5.90;99.90
55004;DHT22;40900;52.710;6.438;2023-04-25T04:49:24;5.90;99.90
55004;DHT22;40900;52.710;6.438;2023-04-25T04:51:50;5.90;99.90
55004;DHT22;40900;52.710;6.438;2023-04-25T04:54:16;5.90;99.90
55004;DHT22;40900;52.710;6.438;2023-04-25T04:56:42;5.90;99.90
55004;DHT22;40900;52.710;6.438;2023-04-25T04:59:08;5.90;99.90
55004;DHT22;40900;52.710;6.438;2023-04-25T05:01:34;5.90;99.90
55004;DHT22;40900;52.710;6.438;2023-04-25T05:04:03;5.90;99.90
55004;DHT22;40900;52.710;6.438;2023-04-25T05:06:29;6.00;99.90
55004;DHT22;40900;52.710;6.438;2023-04-25T05:08:56;6.00;99.90
55004;DHT22;40900;52.710;6.438;2023-04-25T05:11:22;6.00;99.90
55004;DHT22;40900;52.710;6.438;2023-04-25T05:13:50;6.00;99.90
55004;DHT22;40900;52.710;6.438;2023-04-25T05:16:16;6.00;99.90
55004;DHT22;40900;52.710;6.438;2023-04-25T05:18:42;6.00;99.90
55004;DHT22;40900;52.710;6.438;2023-04-25T05:21:08;6.00;99.90
55004;DHT22;40900;52.710;6.438;2023-04-25T05:23:34;6.00;99.90
55004;DHT22;40900;52.710;6.438;2023-04-25T05:25:59;6.10;99.90
55004;DHT22;40900;52.710;6.438;2023-04-25T05:28:25;6.10;99.90
55004;DHT22;40900;52.710;6.438;2023-04-25T05:30:51;6.10;99.90
55004;DHT22;40900;52.710;6.438;2023-04-25T05:33:17;6.00;99.90
55004;DHT22;40900;52.710;6.438;2023-04-25T05:35:43;6.00;99.90
55004;DHT22;40900;52.710;6.438;2023-04-25T05:38:09;6.00;99.90
55004;DHT22;40900;52.710;6.438;2023-04-25T05:40:35;6.00;99.90
55004;DHT22;40900;52.710;6.438;2023-04-25T05:43:01;6.00;99.90
55004;DHT22;40900;52.710;6.438;2023-04-25T05:45:27;6.00;99.90
55004;DHT22;40900;52.710;6.438;2023-04-25T05:47:52;5.90;99.90
55004;DHT22;40900;52.710;6.438;2023-04-25T05:50:18;6.00;99.90
55004;DHT22;40900;52.710;6.438;2023-04-25T05:52:44;6.10;99.90
55004;DHT22;40900;52.710;6.438;2023-04-25T05:55:09;6.10;99.90
55004;DHT22;40900;52.710;6.438;2023-04-25T05:57:35;6.10;99.90
55004;DHT22;40900;52.710;6.438;2023-04-25T06:00:01;6.10;99.90
55004;DHT22;40900;52.710;6.438;2023-04-25T06:02:27;6.20;99.90
55004;DHT22;40900;52.710;6.438;2023-04-25T06:04:53;6.30;99.90
55004;DHT22;40900;52.710;6.438;2023-04-25T06:07:19;6.30;99.90
55004;DHT22;40900;52.710;6.438;2023-04-25T06:09:45;6.40;99.90
55004;DHT22;40900;52.710;6.438;2023-04-25T06:12:11;6.40;99.90
55004;DHT22;40900;52.710;6.438;2023-04-25T06:14:37;6.40;99.90
55004;DHT22;40900;52.710;6.438;2023-04-25T06:17:03;6.40;99.90
55004;DHT22;40900;52.710;6.438;2023-04-25T06:19:34;6.40;99.90
55004;DHT22;40900;52.710;6.438;2023-04-25T06:22:00;6.40;99.90
55004;DHT22;40900;52.710;6.438;2023-04-25T06:24:26;6.40;99.90
55004;DHT22;40900;52.710;6.438;2023-04-25T06:26:51;6.50;99.90
55004;DHT22;40900;52.710;6.438;2023-04-25T06:29:18;6.50;99.90
55004;DHT22;40900;52.710;6.438;2023-04-25T06:31:44;6.50;99.90
55004;DHT22;40900;52.710;6.438;2023-04-25T06:34:09;6.60;99.90
55004;DHT22;40900;52.710;6.438;2023-04-25T06:36:35;6.80;99.90
55004;DHT22;40900;52.710;6.438;2023-04-25T06:39:01;6.80;99.90
55004;DHT22;40900;52.710;6.438;2023-04-25T06:41:27;7.00;99.90
55004;DHT22;40900;52.710;6.438;2023-04-25T06:43:53;7.10;99.90
55004;DHT22;40900;52.710;6.438;2023-04-25T06:46:18;7.10;99.90
55004;DHT22;40900;52.710;6.438;2023-04-25T06:48:44;7.10;99.90
55004;DHT22;40900;52.710;6.438;2023-04-25T06:51:10;7.20;99.90
55004;DHT22;40900;52.710;6.438;2023-04-25T06:53:36;7.20;99.90
55004;DHT22;40900;52.710;6.438;2023-04-25T06:56:02;7.30;99.90
55004;DHT22;40900;52.710;6.438;2023-04-25T06:58:28;7.40;99.90
55004;DHT22;40900;52.710;6.438;2023-04-25T07:00:54;7.40;99.90
55004;DHT22;40900;52.710;6.438;2023-04-25T07:03:20;7.50;99.90
55004;DHT22;40900;52.710;6.438;2023-04-25T07:05:46;7.60;99.90
55004;DHT22;40900;52.710;6.438;2023-04-25T07:08:11;7.70;99.90
55004;DHT22;40900;52.710;6.438;2023-04-25T07:10:37;7.80;99.90
55004;DHT22;40900;52.710;6.438;2023-04-25T07:13:03;7.90;99.90
55004;DHT22;40900;52.710;6.438;2023-04-25T07:15:29;8.10;99.90
55004;DHT22;40900;52.710;6.438;2023-04-25T07:17:55;8.20;99.90
55004;DHT22;40900;52.710;6.438;2023-04-25T07:20:20;8.30;99.90
55004;DHT22;40900;52.710;6.438;2023-04-25T07:22:46;8.50;99.90
55004;DHT22;40900;52.710;6.438;2023-04-25T07:25:12;8.80;99.90
55004;DHT22;40900;52.710;6.438;2023-04-25T07:27:38;8.80;99.90
55004;DHT22;40900;52.710;6.438;2023-04-25T07:30:05;8.70;99.90
55004;DHT22;40900;52.710;6.438;2023-04-25T07:32:30;8.80;99.90
55004;DHT22;40900;52.710;6.438;2023-04-25T07:34:56;8.90;99.90
55004;DHT22;40900;52.710;6.438;2023-04-25T07:37:22;9.00;99.90
55004;DHT22;40900;52.710;6.438;2023-04-25T07:39:48;9.10;99.90
55004;DHT22;40900;52.710;6.438;2023-04-25T07:42:14;9.20;99.90
55004;DHT22;40900;52.710;6.438;2023-04-25T07:44:40;9.40;99.90
55004;DHT22;40900;52.710;6.438;2023-04-25T07:47:06;9.60;99.90
55004;DHT22;40900;52.710;6.438;2023-04-25T07:49:33;9.70;99.90
55004;DHT22;40900;52.710;6.438;2023-04-25T07:52:00;9.70;99.90
55004;DHT22;40900;52.710;6.438;2023-04-25T07:54:26;9.60;99.90
55004;DHT22;40900;52.710;6.438;2023-04-25T07:56:52;9.90;99.90
55004;DHT22;40900;52.710;6.438;2023-04-25T07:59:18;10.50;99.90
55004;DHT22;40900;52.710;6.438;2023-04-25T08:01:43;11.20;99.90
55004;DHT22;40900;52.710;6.438;2023-04-25T08:04:09;11.90;99.90
55004;DHT22;40900;52.710;6.438;2023-04-25T08:06:35;12.10;99.90
55004;DHT22;40900;52.710;6.438;2023-04-25T08:09:01;12.70;99.90
55004;DHT22;40900;52.710;6.438;2023-04-25T08:11:28;12.80;99.90
55004;DHT22;40900;52.710;6.438;2023-04-25T08:13:54;12.50;99.90
55004;DHT22;40900;52.710;6.438;2023-04-25T08:16:20;12.70;99.90
55004;DHT22;40900;52.710;6.438;2023-04-25T08:18:46;12.40;99.90
55004;DHT22;40900;52.710;6.438;2023-04-25T08:21:12;11.90;99.90
55004;DHT22;40900;52.710;6.438;2023-04-25T08:23:38;11.40;99.90
55004;DHT22;40900;52.710;6.438;2023-04-25T08:26:04;10.60;99.90
55004;DHT22;40900;52.710;6.438;2023-04-25T08:28:30;9.50;99.90
55004;DHT22;40900;52.710;6.438;2023-04-25T08:30:56;8.90;99.90
55004;DHT22;40900;52.710;6.438;2023-04-25T08:33:22;8.10;99.90
55004;DHT22;40900;52.710;6.438;2023-04-25T08:35:48;7.80;99.90
55004;DHT22;40900;52.710;6.438;2023-04-25T08:38:14;7.30;99.90
55004;DHT22;40900;52.710;6.438;2023-04-25T08:40:40;7.20;99.90
55004;DHT22;40900;52.710;6.438;2023-04-25T08:43:07;7.20;99.90
55004;DHT22;40900;52.710;6.438;2023-04-25T08:45:40;7.30;99.90
55004;DHT22;40900;52.710;6.438;2023-04-25T08:48:11;7.40;99.90
55004;DHT22;40900;52.710;6.438;2023-04-25T08:50:49;7.60;99.90
55004;DHT22;40900;52.710;6.438;2023-04-25T08:53:16;7.70;99.90
55004;DHT22;40900;52.710;6.438;2023-04-25T08:55:46;8.10;99.90
55004;DHT22;40900;52.710;6.438;2023-04-25T08:58:12;8.80;99.90
55004;DHT22;40900;52.710;6.438;2023-04-25T09:00:39;9.40;99.90
55004;DHT22;40900;52.710;6.438;2023-04-25T09:03:05;10.10;99.90
55004;DHT22;40900;52.710;6.438;2023-04-25T09:05:33;10.50;99.90
55004;DHT22;40900;52.710;6.438;2023-04-25T09:07:58;11.40;99.90
55004;DHT22;40900;52.710;6.438;2023-04-25T09:10:26;12.70;99.90
55004;DHT22;40900;52.710;6.438;2023-04-25T09:13:26;13.60;99.90
55004;DHT22;40900;52.710;6.438;2023-04-25T09:15:57;14.20;99.90
55004;DHT22;40900;52.710;6.438;2023-04-25T09:18:27;15.00;99.90
55004;DHT22;40900;52.710;6.438;2023-04-25T09:21:05;15.50;99.90
55004;DHT22;40900;52.710;6.438;2023-04-25T09:23:31;15.50;99.90
55004;DHT22;40900;52.710;6.438;2023-04-25T09:26:03;16.00;99.90
55004;DHT22;40900;52.710;6.438;2023-04-25T09:28:32;16.20;99.90
55004;DHT22;40900;52.710;6.438;2023-04-25T09:30:58;16.00;99.90
55004;DHT22;40900;52.710;6.438;2023-04-25T09:33:31;15.20;99.90
55004;DHT22;40900;52.710;6.438;2023-04-25T09:36:07;14.80;99.90
55004;DHT22;40900;52.710;6.438;2023-04-25T09:38:42;14.10;99.90
55004;DHT22;40900;52.710;6.438;2023-04-25T09:41:08;13.90;99.90
55004;DHT22;40900;52.710;6.438;2023-04-25T09:43:35;14.40;99.90
55004;DHT22;40900;52.710;6.438;2023-04-25T09:46:02;15.10;99.90
55004;DHT22;40900;52.710;6.438;2023-04-25T09:48:29;15.90;99.90
55004;DHT22;40900;52.710;6.438;2023-04-25T09:51:11;16.20;99.90
55004;DHT22;40900;52.710;6.438;2023-04-25T09:53:48;16.80;99.90
55004;DHT22;40900;52.710;6.438;2023-04-25T09:56:16;16.90;99.90
55004;DHT22;40900;52.710;6.438;2023-04-25T09:58:42;17.50;99.90
55004;DHT22;40900;52.710;6.438;2023-04-25T10:01:10;17.40;98.80
55004;DHT22;40900;52.710;6.438;2023-04-25T10:03:38;17.80;99.90
55004;DHT22;40900;52.710;6.438;2023-04-25T10:06:14;17.80;99.60
55004;DHT22;40900;52.710;6.438;2023-04-25T10:08:42;18.20;98.80
55004;DHT22;40900;52.710;6.438;2023-04-25T10:11:08;18.40;98.30
55004;DHT22;40900;52.710;6.438;2023-04-25T10:13:35;18.50;97.00
55004;DHT22;40900;52.710;6.438;2023-04-25T10:16:03;18.30;96.20
55004;DHT22;40900;52.710;6.438;2023-04-25T10:18:31;18.00;99.40
55004;DHT22;40900;52.710;6.438;2023-04-25T10:21:01;17.00;97.80
55004;DHT22;40900;52.710;6.438;2023-04-25T10:23:29;16.10;97.90
55004;DHT22;40900;52.710;6.438;2023-04-25T10:25:56;15.30;99.90
55004;DHT22;40900;52.710;6.438;2023-04-25T10:28:22;14.30;99.90
55004;DHT22;40900;52.710;6.438;2023-04-25T10:30:58;13.60;99.90
55004;DHT22;40900;52.710;6.438;2023-04-25T10:33:40;13.70;99.90
55004;DHT22;40900;52.710;6.438;2023-04-25T10:36:22;14.50;99.90
55004;DHT22;40900;52.710;6.438;2023-04-25T10:38:49;14.60;99.90
55004;DHT22;40900;52.710;6.438;2023-04-25T10:41:20;14.30;99.90
55004;DHT22;40900;52.710;6.438;2023-04-25T10:43:49;13.80;99.90
55004;DHT22;40900;52.710;6.438;2023-04-25T10:46:25;13.20;99.90
55004;DHT22;40900;52.710;6.438;2023-04-25T10:48:56;12.80;99.90
55004;DHT22;40900;52.710;6.438;2023-04-25T10:51:30;12.50;99.90
55004;DHT22;40900;52.710;6.438;2023-04-25T10:54:01;12.20;99.90
55004;DHT22;40900;52.710;6.438;2023-04-25T10:56:36;12.10;99.90
55004;DHT22;40900;52.710;6.438;2023-04-25T10:59:15;12.00;99.90
55004;DHT22;40900;52.710;6.438;2023-04-25T11:01:53;12.00;99.90
55004;DHT22;40900;52.710;6.438;2023-04-25T11:04:28;12.00;99.90
55004;DHT22;40900;52.710;6.438;2023-04-25T11:09:29;12.40;99.90
55004;DHT22;40900;52.710;6.438;2023-04-25T11:11:57;13.20;99.90
55004;DHT22;40900;52.710;6.438;2023-04-25T11:14:24;13.30;99.90
55004;DHT22;40900;52.710;6.438;2023-04-25T11:17:08;13.60;99.90
55004;DHT22;40900;52.710;6.438;2023-04-25T11:19:36;13.50;99.90
55004;DHT22;40900;52.710;6.438;2023-04-25T11:22:02;14.00;99.90
55004;DHT22;40900;52.710;6.438;2023-04-25T11:24:33;14.00;99.90
55004;DHT22;40900;52.710;6.438;2023-04-25T11:27:03;14.10;99.90
55004;DHT22;40900;52.710;6.438;2023-04-25T11:29:33;14.30;99.90
55004;DHT22;40900;52.710;6.438;2023-04-25T11:32:00;14.40;99.90
55004;DHT22;40900;52.710;6.438;2023-04-25T11:34:27;14.40;99.90
55004;DHT22;40900;52.710;6.438;2023-04-25T11:36:56;14.30;99.90
55004;DHT22;40900;52.710;6.438;2023-04-25T11:39:24;14.50;99.90
55004;DHT22;40900;52.710;6.438;2023-04-25T11:41:50;14.50;99.90
55004;DHT22;40900;52.710;6.438;2023-04-25T11:44:17;14.50;99.90
55004;DHT22;40900;52.710;6.438;2023-04-25T11:46:44;14.70;99.90
55004;DHT22;40900;52.710;6.438;2023-04-25T11:49:10;14.90;99.90
55004;DHT22;40900;52.710;6.438;2023-04-25T11:51:40;14.80;99.90
55004;DHT22;40900;52.710;6.438;2023-04-25T11:54:06;14.60;99.90
55004;DHT22;40900;52.710;6.438;2023-04-25T11:56:32;14.70;99.90
55004;DHT22;40900;52.710;6.438;2023-04-25T11:58:59;14.70;99.90
55004;DHT22;40900;52.710;6.438;2023-04-25T12:01:30;14.60;99.90
55004;DHT22;40900;52.710;6.438;2023-04-25T12:03:56;14.80;99.90
55004;DHT22;40900;52.710;6.438;2023-04-25T12:06:27;15.00;99.90
55004;DHT22;40900;52.710;6.438;2023-04-25T12:09:03;15.00;99.60
55004;DHT22;40900;52.710;6.438;2023-04-25T12:11:32;15.10;96.40
55004;DHT22;40900;52.710;6.438;2023-04-25T12:14:02;14.90;97.90
55004;DHT22;40900;52.710;6.438;2023-04-25T12:16:29;14.90;98.50
55004;DHT22;40900;52.710;6.438;2023-04-25T12:18:56;14.60;98.60
55004;DHT22;40900;52.710;6.438;2023-04-25T12:21:23;14.60;99.60
55004;DHT22;40900;52.710;6.438;2023-04-25T12:23:48;14.10;99.90
55004;DHT22;40900;52.710;6.438;2023-04-25T12:26:14;13.70;99.90
55004;DHT22;40900;52.710;6.438;2023-04-25T12:28:45;13.60;99.90
55004;DHT22;40900;52.710;6.438;2023-04-25T12:31:12;13.60;99.90
55004;DHT22;40900;52.710;6.438;2023-04-25T12:33:40;13.10;99.90
55004;DHT22;40900;52.710;6.438;2023-04-25T12:36:08;12.70;99.90
55004;DHT22;40900;52.710;6.438;2023-04-25T12:38:39;12.60;99.90
55004;DHT22;40900;52.710;6.438;2023-04-25T12:41:05;12.60;99.90
55004;DHT22;40900;52.710;6.438;2023-04-25T12:43:31;12.70;99.90
55004;DHT22;40900;52.710;6.438;2023-04-25T12:45:57;12.80;99.90
55004;DHT22;40900;52.710;6.438;2023-04-25T12:48:23;13.10;99.90
55004;DHT22;40900;52.710;6.438;2023-04-25T12:50:50;13.20;99.90
55004;DHT22;40900;52.710;6.438;2023-04-25T12:53:17;13.40;99.90
55004;DHT22;40900;52.710;6.438;2023-04-25T12:55:44;13.50;99.90
55004;DHT22;40900;52.710;6.438;2023-04-25T12:58:13;13.50;99.90
55004;DHT22;40900;52.710;6.438;2023-04-25T13:00:39;13.50;99.90
55004;DHT22;40900;52.710;6.438;2023-04-25T13:03:05;13.50;99.90
55004;DHT22;40900;52.710;6.438;2023-04-25T13:05:31;13.40;99.40
55004;DHT22;40900;52.710;6.438;2023-04-25T13:07:58;13.60;99.90
55004;DHT22;40900;52.710;6.438;2023-04-25T13:10:24;13.70;99.30
55004;DHT22;40900;52.710;6.438;2023-04-25T13:12:50;13.80;99.40
55004;DHT22;40900;52.710;6.438;2023-04-25T13:15:16;13.80;99.90
55004;DHT22;40900;52.710;6.438;2023-04-25T13:17:42;13.90;99.70
55004;DHT22;40900;52.710;6.438;2023-04-25T13:20:08;13.70;99.90
55004;DHT22;40900;52.710;6.438;2023-04-25T13:22:39;13.40;99.90
55004;DHT22;40900;52.710;6.438;2023-04-25T13:25:06;12.90;99.90
55004;DHT22;40900;52.710;6.438;2023-04-25T13:27:32;12.40;99.90
55004;DHT22;40900;52.710;6.438;2023-04-25T13:30:05;12.20;99.90
55004;DHT22;40900;52.710;6.438;2023-04-25T13:32:37;12.10;99.90
55004;DHT22;40900;52.710;6.438;2023-04-25T13:35:04;11.80;99.90
55004;DHT22;40900;52.710;6.438;2023-04-25T13:37:30;11.60;99.90
55004;DHT22;40900;52.710;6.438;2023-04-25T13:39:59;11.50;99.90
55004;DHT22;40900;52.710;6.438;2023-04-25T13:42:29;11.60;99.90
55004;DHT22;40900;52.710;6.438;2023-04-25T13:44:56;11.90;99.90
55004;DHT22;40900;52.710;6.438;2023-04-25T13:47:26;12.20;99.90
55004;DHT22;40900;52.710;6.438;2023-04-25T13:49:52;12.40;99.90
55004;DHT22;40900;52.710;6.438;2023-04-25T13:52:18;12.60;99.90
55004;DHT22;40900;52.710;6.438;2023-04-25T13:54:43;12.70;99.90
55004;DHT22;40900;52.710;6.438;2023-04-25T13:57:09;12.50;99.90
55004;DHT22;40900;52.710;6.438;2023-04-25T13:59:36;12.40;99.90
55004;DHT22;40900;52.710;6.438;2023-04-25T14:02:02;12.40;99.90
55004;DHT22;40900;52.710;6.438;2023-04-25T14:04:28;12.30;99.90
55004;DHT22;40900;52.710;6.438;2023-04-25T14:06:54;12.30;99.90
55004;DHT22;40900;52.710;6.438;2023-04-25T14:09:20;12.10;99.90
55004;DHT22;40900;52.710;6.438;2023-04-25T14:11:51;12.00;99.90
55004;DHT22;40900;52.710;6.438;2023-04-25T14:14:18;12.10;99.90
55004;DHT22;40900;52.710;6.438;2023-04-25T14:16:44;12.00;99.90
55004;DHT22;40900;52.710;6.438;2023-04-25T14:19:10;12.10;99.90
55004;DHT22;40900;52.710;6.438;2023-04-25T14:21:35;12.20;99.90
55004;DHT22;40900;52.710;6.438;2023-04-25T14:24:01;12.40;99.90
55004;DHT22;40900;52.710;6.438;2023-04-25T14:26:27;12.60;99.90
55004;DHT22;40900;52.710;6.438;2023-04-25T14:28:52;12.60;99.90
55004;DHT22;40900;52.710;6.438;2023-04-25T14:31:18;12.30;99.90
55004;DHT22;40900;52.710;6.438;2023-04-25T14:33:44;12.20;99.90
55004;DHT22;40900;52.710;6.438;2023-04-25T14:36:11;11.80;99.90
55004;DHT22;40900;52.710;6.438;2023-04-25T14:38:36;11.60;99.90
55004;DHT22;40900;52.710;6.438;2023-04-25T14:41:03;11.40;99.90
55004;DHT22;40900;52.710;6.438;2023-04-25T14:43:29;11.40;99.90
55004;DHT22;40900;52.710;6.438;2023-04-25T14:45:55;11.20;99.90
55004;DHT22;40900;52.710;6.438;2023-04-25T14:48:20;11.10;99.90
55004;DHT22;40900;52.710;6.438;2023-04-25T14:50:46;11.10;99.90
55004;DHT22;40900;52.710;6.438;2023-04-25T14:53:12;11.10;99.90
55004;DHT22;40900;52.710;6.438;2023-04-25T14:55:38;11.10;99.90
55004;DHT22;40900;52.710;6.438;2023-04-25T14:58:04;11.10;99.90
55004;DHT22;40900;52.710;6.438;2023-04-25T15:00:30;11.20;99.90
55004;DHT22;40900;52.710;6.438;2023-04-25T15:02:59;11.30;99.90
55004;DHT22;40900;52.710;6.438;2023-04-25T15:05:24;11.50;99.90
55004;DHT22;40900;52.710;6.438;2023-04-25T15:07:51;11.80;99.90
55004;DHT22;40900;52.710;6.438;2023-04-25T15:10:18;12.00;99.90
55004;DHT22;40900;52.710;6.438;2023-04-25T15:12:44;12.00;99.90
55004;DHT22;40900;52.710;6.438;2023-04-25T15:15:10;12.00;99.90
55004;DHT22;40900;52.710;6.438;2023-04-25T15:17:38;11.70;99.90
55004;DHT22;40900;52.710;6.438;2023-04-25T15:20:08;11.50;99.90
55004;DHT22;40900;52.710;6.438;2023-04-25T15:22:36;11.20;99.90
55004;DHT22;40900;52.710;6.438;2023-04-25T15:25:02;11.10;99.90
55004;DHT22;40900;52.710;6.438;2023-04-25T15:27:28;11.00;99.90
55004;DHT22;40900;52.710;6.438;2023-04-25T15:29:54;11.10;99.90
55004;DHT22;40900;52.710;6.438;2023-04-25T15:32:20;11.10;99.90
55004;DHT22;40900;52.710;6.438;2023-04-25T15:34:46;11.00;99.90
55004;DHT22;40900;52.710;6.438;2023-04-25T15:37:12;11.10;99.90
55004;DHT22;40900;52.710;6.438;2023-04-25T15:39:37;11.10;99.90
55004;DHT22;40900;52.710;6.438;2023-04-25T15:42:03;10.80;99.90